createdAt,value
2024-01-31T00:00:43.034Z,9.80
2024-01-31T00:03:09.730Z,9.70
2024-01-31T00:05:36.679Z,10.10
2024-01-31T00:08:03.937Z,9.00
2024-01-31T00:10:30.968Z,9.50
2024-01-31T00:12:57.991Z,9.80
2024-01-31T00:15:25.219Z,10.40
2024-01-31T00:17:52.824Z,9.50
2024-01-31T00:20:19.725Z,9.90
2024-01-31T00:22:46.798Z,8.90
2024-01-31T00:25:13.935Z,9.10
2024-01-31T00:27:41.337Z,9.50
2024-01-31T00:30:11.035Z,9.70
2024-01-31T00:32:37.924Z,8.80
2024-01-31T00:35:05.629Z,9.30
2024-01-31T00:37:32.748Z,8.80
2024-01-31T00:39:59.969Z,8.70
2024-01-31T00:42:26.695Z,9.50
2024-01-31T00:44:53.629Z,9.20
2024-01-31T00:47:20.650Z,9.20
2024-01-31T00:49:47.719Z,9.00
2024-01-31T00:52:17.142Z,9.70
2024-01-31T00:54:46.277Z,10.40
2024-01-31T00:57:14.502Z,9.30
2024-01-31T00:59:43.072Z,9.40
2024-01-31T01:02:10.614Z,9.60
2024-01-31T01:04:37.752Z,8.20
2024-01-31T01:07:05.201Z,9.40
2024-01-31T01:09:32.187Z,9.00
2024-01-31T01:11:59.058Z,8.90
2024-01-31T01:14:25.976Z,9.10
2024-01-31T01:16:52.818Z,9.20
2024-01-31T01:19:19.641Z,9.00
2024-01-31T01:21:46.713Z,8.80
2024-01-31T01:24:13.545Z,8.20
2024-01-31T01:26:41.206Z,9.10
2024-01-31T01:29:08.548Z,9.20
2024-01-31T01:31:35.783Z,8.70
2024-01-31T01:34:02.807Z,9.10
2024-01-31T01:36:30.009Z,9.30
2024-01-31T01:38:56.852Z,9.10
2024-01-31T01:41:23.601Z,9.40
2024-01-31T01:43:50.540Z,9.10
2024-01-31T01:46:21.932Z,9.30
2024-01-31T01:48:49.057Z,8.80
2024-01-31T01:51:17.956Z,8.70
2024-01-31T01:53:47.972Z,8.50
2024-01-31T01:56:16.010Z,8.90
2024-01-31T01:58:43.387Z,8.30
2024-01-31T02:01:10.365Z,9.20
2024-01-31T02:03:37.160Z,7.70
2024-01-31T02:06:04.712Z,8.80
2024-01-31T02:08:31.777Z,9.00
2024-01-31T02:10:58.492Z,9.00
2024-01-31T02:13:25.437Z,9.50
2024-01-31T02:15:53.614Z,8.70
2024-01-31T02:18:22.045Z,8.90
2024-01-31T02:20:49.033Z,8.90
2024-01-31T02:23:16.390Z,8.50
2024-01-31T02:25:43.300Z,8.10
2024-01-31T02:28:10.534Z,8.00
2024-01-31T02:30:40.292Z,8.40
2024-01-31T02:33:07.094Z,8.00
2024-01-31T02:35:35.045Z,8.30
2024-01-31T02:38:02.253Z,8.60
2024-01-31T02:40:32.286Z,8.90
2024-01-31T02:43:00.502Z,8.40
2024-01-31T02:45:30.558Z,8.10
2024-01-31T02:47:57.468Z,8.10
2024-01-31T02:50:26.089Z,8.50
2024-01-31T02:52:53.034Z,8.70
2024-01-31T02:55:19.721Z,9.00
2024-01-31T02:57:46.716Z,8.90
2024-01-31T03:00:14.603Z,8.80
2024-01-31T03:02:45.374Z,8.30
2024-01-31T03:05:13.026Z,8.00
2024-01-31T03:07:40.238Z,8.50
2024-01-31T03:10:08.147Z,8.90
2024-01-31T03:12:35.150Z,9.30
2024-01-31T03:15:02.738Z,9.10
2024-01-31T03:17:36.300Z,9.50
2024-01-31T03:20:07.251Z,9.50
2024-01-31T03:22:35.501Z,9.10
2024-01-31T03:25:03.141Z,10.40
2024-01-31T03:27:30.124Z,10.20
2024-01-31T03:30:02.493Z,9.70
2024-01-31T03:32:32.234Z,9.40
2024-01-31T03:34:59.975Z,9.40
2024-01-31T03:37:27.572Z,9.50
2024-01-31T03:39:54.371Z,10.20
2024-01-31T03:42:21.137Z,9.20
2024-01-31T03:44:48.057Z,9.90
2024-01-31T03:47:15.245Z,9.60
2024-01-31T03:49:42.639Z,8.80
2024-01-31T03:52:09.763Z,9.10
2024-01-31T03:54:36.657Z,10.20
2024-01-31T03:57:03.515Z,9.50
2024-01-31T03:59:30.347Z,9.90
2024-01-31T04:01:57.376Z,10.20
2024-01-31T04:04:24.410Z,9.70
2024-01-31T04:06:51.936Z,9.60
2024-01-31T04:09:18.865Z,9.40
2024-01-31T04:11:45.667Z,10.30
2024-01-31T04:14:12.552Z,9.90
2024-01-31T04:16:39.865Z,9.40
2024-01-31T04:19:07.714Z,9.60
2024-01-31T04:21:34.577Z,9.50
2024-01-31T04:24:01.521Z,8.90
2024-01-31T04:26:28.372Z,8.90
2024-01-31T04:28:55.200Z,10.00
2024-01-31T04:31:22.111Z,9.70
2024-01-31T04:33:49.030Z,9.40
2024-01-31T04:36:16.076Z,9.70
2024-01-31T04:38:42.989Z,9.00
2024-01-31T04:41:09.870Z,9.50
2024-01-31T04:43:36.741Z,9.40
2024-01-31T04:46:04.055Z,9.30
2024-01-31T04:48:31.153Z,9.70
2024-01-31T04:50:58.119Z,8.80
2024-01-31T04:53:25.070Z,9.50
2024-01-31T04:55:51.926Z,9.40
2024-01-31T04:58:18.704Z,10.30
2024-01-31T05:00:45.803Z,10.60
2024-01-31T05:03:12.575Z,10.00
2024-01-31T05:05:39.457Z,9.50
2024-01-31T05:08:07.030Z,10.70
2024-01-31T05:10:35.395Z,9.50
2024-01-31T05:13:02.909Z,10.00
2024-01-31T05:15:31.780Z,9.10
2024-01-31T05:18:00.763Z,10.00
2024-01-31T05:20:29.990Z,9.20
2024-01-31T05:22:57.305Z,10.00
2024-01-31T05:25:24.257Z,10.20
2024-01-31T05:27:51.114Z,9.80
2024-01-31T05:30:18.032Z,10.10
2024-01-31T05:32:46.649Z,9.70
2024-01-31T05:35:14.311Z,10.40
2024-01-31T05:37:41.383Z,10.30
2024-01-31T05:40:12.433Z,9.90
2024-01-31T05:42:39.770Z,10.00
2024-01-31T05:45:07.383Z,10.70
2024-01-31T05:47:34.358Z,10.50
2024-01-31T05:50:01.283Z,10.90
2024-01-31T05:52:28.633Z,11.80
2024-01-31T05:54:55.618Z,10.90
2024-01-31T05:57:22.431Z,12.20
2024-01-31T05:59:49.351Z,12.70
2024-01-31T06:02:16.489Z,12.20
2024-01-31T06:04:43.646Z,12.40
2024-01-31T06:07:13.180Z,11.90
2024-01-31T06:09:40.410Z,11.10
2024-01-31T06:12:07.457Z,12.00
2024-01-31T06:14:37.161Z,11.40
2024-01-31T06:17:04.844Z,11.90
2024-01-31T06:19:31.972Z,10.80
2024-01-31T06:21:59.211Z,11.20
2024-01-31T06:24:26.270Z,10.40
2024-01-31T06:26:53.113Z,10.70
2024-01-31T06:29:20.105Z,11.10
2024-01-31T06:31:48.174Z,10.80
2024-01-31T06:34:15.998Z,10.90
2024-01-31T06:36:43.597Z,11.30
2024-01-31T06:39:10.499Z,11.30
2024-01-31T06:41:38.176Z,10.80
2024-01-31T06:44:05.416Z,11.40
2024-01-31T06:46:32.539Z,10.70
2024-01-31T06:49:00.202Z,11.60
2024-01-31T06:51:27.397Z,11.20
2024-01-31T06:53:54.320Z,10.50
2024-01-31T06:56:21.430Z,10.70
2024-01-31T06:58:49.482Z,11.20
2024-01-31T07:01:17.219Z,10.40
2024-01-31T07:03:47.468Z,10.70
2024-01-31T07:06:15.599Z,11.20
2024-01-31T07:08:42.532Z,11.20
2024-01-31T07:11:09.613Z,11.60
2024-01-31T07:13:36.997Z,11.10
2024-01-31T07:16:05.688Z,10.80
2024-01-31T07:18:33.423Z,10.50
2024-01-31T07:21:00.340Z,10.90
2024-01-31T07:23:34.297Z,10.80
2024-01-31T07:26:01.233Z,11.80
2024-01-31T07:28:28.292Z,13.10
2024-01-31T07:30:55.989Z,13.00
2024-01-31T07:33:23.401Z,12.80
2024-01-31T07:35:51.724Z,12.10
2024-01-31T07:38:21.644Z,12.10
2024-01-31T07:40:49.647Z,12.10
2024-01-31T07:43:17.037Z,12.70
2024-01-31T07:45:44.594Z,11.90
2024-01-31T07:48:14.398Z,12.30
2024-01-31T07:50:41.396Z,12.30
2024-01-31T07:53:08.173Z,12.20
2024-01-31T07:55:38.994Z,12.00
2024-01-31T07:58:06.145Z,11.70
2024-01-31T08:00:33.365Z,11.80
2024-01-31T08:03:01.217Z,11.30
2024-01-31T08:05:28.852Z,11.50
2024-01-31T08:07:55.887Z,11.20
2024-01-31T08:10:23.729Z,11.20
2024-01-31T08:12:51.074Z,12.20
2024-01-31T08:15:18.777Z,11.70
2024-01-31T08:17:47.768Z,11.80
2024-01-31T08:20:14.750Z,12.60
2024-01-31T08:22:41.929Z,12.10
2024-01-31T08:25:10.191Z,12.00
2024-01-31T08:27:37.197Z,13.20
2024-01-31T08:30:04.933Z,12.60
2024-01-31T08:32:35.289Z,13.10
2024-01-31T08:35:03.460Z,13.10
2024-01-31T08:37:31.356Z,12.50
2024-01-31T08:39:58.419Z,12.00
2024-01-31T08:42:29.550Z,11.70
2024-01-31T08:44:56.806Z,11.70
2024-01-31T08:47:23.876Z,11.10
2024-01-31T08:49:50.892Z,11.30
2024-01-31T08:52:18.417Z,10.70
2024-01-31T08:54:45.524Z,11.00
2024-01-31T08:57:12.742Z,10.00
2024-01-31T08:59:39.857Z,11.00
2024-01-31T09:02:08.632Z,10.60
2024-01-31T09:04:36.363Z,10.20
2024-01-31T09:07:03.751Z,10.90
2024-01-31T09:09:33.406Z,10.40
2024-01-31T09:12:01.068Z,11.20
2024-01-31T09:14:28.075Z,10.90
2024-01-31T09:16:55.206Z,11.40
2024-01-31T09:19:22.507Z,11.40
2024-01-31T09:21:49.529Z,10.90
2024-01-31T09:24:16.528Z,10.90
2024-01-31T09:26:44.245Z,10.40
2024-01-31T09:29:11.333Z,9.80
2024-01-31T09:31:38.956Z,10.70
2024-01-31T09:34:06.121Z,10.20
2024-01-31T09:36:33.202Z,10.70
2024-01-31T09:39:00.473Z,10.20
2024-01-31T09:41:27.544Z,11.50
2024-01-31T09:43:54.641Z,12.10
2024-01-31T09:46:21.737Z,12.00
2024-01-31T09:48:48.886Z,12.80
2024-01-31T09:51:15.967Z,13.30
2024-01-31T09:53:43.408Z,11.70
2024-01-31T09:56:10.350Z,11.50
2024-01-31T09:58:37.744Z,11.70
2024-01-31T10:01:10.644Z,10.70
2024-01-31T10:03:41.968Z,11.20
2024-01-31T10:06:12.292Z,11.60
2024-01-31T10:08:40.020Z,11.20
2024-01-31T10:11:07.350Z,11.60
2024-01-31T10:13:34.502Z,11.80
2024-01-31T10:16:02.012Z,11.90
2024-01-31T10:18:29.906Z,10.70
2024-01-31T10:21:00.707Z,10.80
2024-01-31T10:23:27.752Z,10.60
2024-01-31T10:25:56.045Z,10.30
2024-01-31T10:28:23.652Z,9.60
2024-01-31T10:30:51.151Z,10.60
2024-01-31T10:33:18.411Z,9.80
2024-01-31T10:36:24.153Z,9.90
2024-01-31T10:38:33.762Z,11.00
2024-01-31T10:41:01.037Z,10.50
2024-01-31T10:43:28.206Z,10.20
2024-01-31T10:45:55.228Z,10.40
2024-01-31T10:48:22.366Z,10.50
2024-01-31T10:50:51.549Z,10.80
2024-01-31T10:53:18.607Z,11.00
2024-01-31T10:55:45.847Z,10.30
2024-01-31T10:58:13.886Z,9.80
2024-01-31T11:00:47.103Z,10.60
2024-01-31T11:03:15.204Z,10.20
2024-01-31T11:05:42.538Z,9.70
2024-01-31T11:08:20.090Z,9.90
2024-01-31T11:10:47.074Z,9.60
2024-01-31T11:13:14.149Z,9.60
2024-01-31T11:15:41.622Z,8.60
2024-01-31T11:18:10.647Z,8.80
2024-01-31T11:20:48.088Z,9.20
2024-01-31T11:23:20.248Z,9.20
2024-01-31T11:25:47.785Z,9.50
2024-01-31T11:28:16.334Z,9.40
2024-01-31T11:30:43.849Z,9.20
2024-01-31T11:33:11.187Z,8.50
2024-01-31T11:35:42.318Z,8.20
2024-01-31T11:38:09.317Z,7.80
2024-01-31T11:40:36.060Z,7.70
2024-01-31T11:43:04.183Z,8.10
2024-01-31T11:45:31.422Z,7.60
2024-01-31T11:47:58.819Z,8.00
2024-01-31T11:50:26.644Z,8.10
2024-01-31T11:52:53.778Z,7.90
2024-01-31T11:55:22.669Z,8.60
2024-01-31T11:57:53.346Z,7.90
2024-01-31T12:00:21.624Z,7.20
2024-01-31T12:02:49.860Z,7.20
2024-01-31T12:05:17.713Z,7.70
2024-01-31T12:07:56.452Z,7.20
2024-01-31T12:10:27.521Z,7.90
2024-01-31T12:12:56.779Z,7.30
2024-01-31T12:15:23.663Z,7.00
2024-01-31T12:17:51.382Z,7.40
2024-01-31T12:20:18.519Z,7.80
2024-01-31T12:22:46.120Z,7.80
2024-01-31T12:25:13.041Z,7.60
2024-01-31T12:27:40.239Z,7.00
2024-01-31T12:30:08.725Z,7.10
2024-01-31T12:32:36.265Z,7.20
2024-01-31T12:35:04.951Z,7.40
2024-01-31T12:37:31.967Z,7.90
2024-01-31T12:39:59.402Z,7.10
2024-01-31T12:42:26.809Z,8.00
2024-01-31T12:44:54.133Z,8.20
2024-01-31T12:47:21.058Z,8.00
2024-01-31T12:49:48.196Z,7.60
2024-01-31T12:52:16.124Z,7.90
2024-01-31T12:54:43.122Z,7.80
2024-01-31T12:57:10.106Z,8.20
2024-01-31T12:59:37.604Z,8.50
2024-01-31T13:02:04.970Z,7.80
2024-01-31T13:04:31.857Z,7.50
2024-01-31T13:06:59.509Z,8.00
2024-01-31T13:09:27.171Z,8.60
2024-01-31T13:11:54.224Z,8.30
2024-01-31T13:14:21.386Z,8.40
2024-01-31T13:16:55.369Z,9.10
2024-01-31T13:19:28.956Z,9.00
2024-01-31T13:21:56.513Z,8.60
2024-01-31T13:24:23.668Z,8.40
2024-01-31T13:26:51.234Z,9.30
2024-01-31T13:29:19.790Z,9.00
2024-01-31T13:31:46.786Z,9.10
2024-01-31T13:34:14.147Z,8.90
2024-01-31T13:36:41.557Z,9.50
2024-01-31T13:39:08.549Z,8.80
2024-01-31T13:41:38.743Z,9.00
2024-01-31T13:44:05.808Z,9.00
2024-01-31T13:46:32.868Z,9.30
2024-01-31T13:49:00.661Z,10.10
2024-01-31T13:51:28.200Z,10.00
2024-01-31T13:53:55.499Z,9.70
2024-01-31T13:56:22.673Z,9.10
2024-01-31T13:58:49.881Z,9.80
2024-01-31T14:01:16.902Z,9.20
2024-01-31T14:03:44.739Z,10.10
2024-01-31T14:06:11.981Z,9.80
2024-01-31T14:08:39.167Z,10.00
2024-01-31T14:19:00.741Z,10.30
2024-01-31T14:21:27.614Z,10.20
2024-01-31T14:24:01.085Z,10.20
2024-01-31T14:26:36.489Z,10.50
2024-01-31T14:29:03.420Z,11.30
2024-01-31T14:31:30.342Z,10.70
2024-01-31T14:33:57.474Z,10.70
2024-01-31T14:36:25.791Z,11.30
2024-01-31T14:38:52.728Z,10.60
2024-01-31T14:41:19.717Z,10.90
2024-01-31T14:43:46.848Z,10.60
2024-01-31T14:46:15.492Z,10.80
2024-01-31T14:48:43.927Z,10.10
2024-01-31T14:51:11.254Z,10.60
2024-01-31T14:53:38.496Z,10.30
2024-01-31T14:56:05.574Z,10.70
2024-01-31T14:58:32.399Z,10.70
2024-01-31T15:01:00.955Z,10.90
2024-01-31T15:03:27.645Z,10.80
2024-01-31T15:05:54.689Z,11.50
2024-01-31T15:08:22.187Z,10.90
2024-01-31T15:10:49.571Z,11.60
2024-01-31T15:13:16.222Z,10.80
2024-01-31T15:15:42.952Z,11.30
2024-01-31T15:18:09.860Z,10.10
2024-01-31T15:20:40.740Z,10.20
2024-01-31T15:23:07.455Z,10.30
2024-01-31T15:25:34.241Z,11.00
2024-01-31T15:28:00.914Z,10.60
2024-01-31T15:30:27.791Z,10.40
2024-01-31T15:32:54.856Z,11.00
2024-01-31T15:35:22.007Z,10.80
2024-01-31T15:37:51.543Z,11.40
2024-01-31T15:40:20.830Z,11.40
2024-01-31T15:42:47.555Z,11.50
2024-01-31T15:45:14.370Z,11.70
2024-01-31T15:47:41.162Z,11.70
2024-01-31T15:50:09.988Z,11.50
2024-01-31T15:52:36.731Z,11.70
2024-01-31T15:55:04.182Z,11.90
2024-01-31T15:57:30.991Z,11.80
2024-01-31T15:59:57.650Z,13.20
2024-01-31T16:02:24.479Z,12.60
2024-01-31T16:04:51.166Z,12.40
2024-01-31T16:07:18.920Z,13.20
2024-01-31T16:09:45.641Z,14.20
2024-01-31T16:12:12.844Z,13.70
2024-01-31T16:14:39.734Z,15.20
2024-01-31T16:17:06.483Z,15.70
2024-01-31T16:19:33.423Z,15.70
2024-01-31T16:22:00.124Z,15.00
2024-01-31T16:24:26.951Z,16.20
2024-01-31T16:26:53.669Z,14.80
2024-01-31T16:29:20.464Z,15.90
2024-01-31T16:31:47.121Z,15.00
2024-01-31T16:34:20.148Z,15.40
2024-01-31T16:36:47.921Z,14.50
2024-01-31T16:39:14.662Z,14.90
2024-01-31T16:41:41.339Z,15.00
2024-01-31T16:44:08.103Z,15.40
2024-01-31T16:46:35.121Z,14.60
2024-01-31T16:49:01.950Z,14.10
2024-01-31T16:51:29.129Z,14.60
2024-01-31T16:53:55.875Z,14.40
2024-01-31T16:56:22.641Z,14.90
2024-01-31T16:58:49.338Z,14.80
2024-01-31T17:01:17.188Z,15.60
2024-01-31T17:03:44.049Z,15.80
2024-01-31T17:06:10.842Z,15.50
2024-01-31T17:08:37.942Z,15.00
2024-01-31T17:11:04.680Z,15.10
2024-01-31T17:13:31.484Z,14.40
2024-01-31T17:15:58.865Z,15.60
2024-01-31T17:18:25.736Z,15.30
2024-01-31T17:20:52.610Z,14.50
2024-01-31T17:23:19.438Z,14.80
2024-01-31T17:25:46.197Z,15.20
2024-01-31T17:28:13.590Z,15.10
2024-01-31T17:30:41.369Z,15.10
2024-01-31T17:33:09.389Z,14.90
2024-01-31T17:35:36.316Z,14.00
2024-01-31T17:38:03.335Z,15.30
2024-01-31T17:40:30.128Z,13.50
2024-01-31T17:42:56.934Z,13.90
2024-01-31T17:45:23.587Z,13.80
2024-01-31T17:47:51.407Z,14.30
2024-01-31T17:50:19.092Z,13.80
2024-01-31T17:52:45.778Z,14.00
2024-01-31T17:55:13.520Z,13.00
2024-01-31T17:57:40.252Z,13.00
2024-01-31T18:00:09.142Z,12.60
2024-01-31T18:02:36.496Z,14.40
2024-01-31T18:05:03.267Z,13.90
2024-01-31T18:07:30.168Z,12.70
2024-01-31T18:09:56.914Z,13.80
2024-01-31T18:12:28.295Z,13.30
2024-01-31T18:14:55.747Z,13.50
2024-01-31T18:17:22.487Z,14.20
2024-01-31T18:19:49.334Z,14.40
2024-01-31T18:22:16.215Z,13.80
2024-01-31T18:24:43.070Z,15.00
2024-01-31T18:27:09.958Z,14.10
2024-01-31T18:29:36.889Z,13.50
2024-01-31T18:32:05.450Z,14.90
2024-01-31T18:34:32.869Z,14.00
2024-01-31T18:37:02.367Z,13.70
2024-01-31T18:39:29.314Z,14.50
2024-01-31T18:41:55.995Z,14.80
2024-01-31T18:44:22.839Z,14.80
2024-01-31T18:46:49.566Z,14.10
2024-01-31T18:49:19.897Z,14.40
2024-01-31T18:51:46.803Z,15.50
2024-01-31T18:54:13.451Z,14.50
2024-01-31T18:56:41.023Z,14.50
2024-01-31T18:59:08.733Z,14.30
2024-01-31T19:01:35.459Z,13.90
2024-01-31T19:04:02.265Z,15.60
2024-01-31T19:06:29.427Z,14.40
2024-01-31T19:08:56.601Z,14.30
2024-01-31T19:11:23.331Z,14.00
2024-01-31T19:13:52.846Z,14.60
2024-01-31T19:16:19.643Z,14.40
2024-01-31T19:18:47.940Z,13.80
2024-01-31T19:21:14.949Z,14.20
2024-01-31T19:23:41.661Z,14.60
2024-01-31T19:26:08.463Z,14.30
2024-01-31T19:28:35.266Z,14.00
2024-01-31T19:31:02.002Z,13.50
2024-01-31T19:33:29.161Z,14.00
2024-01-31T19:35:56.689Z,14.80
2024-01-31T19:38:23.671Z,13.50
2024-01-31T19:40:50.460Z,14.90
2024-01-31T19:43:17.761Z,14.70
2024-01-31T19:45:44.477Z,14.10
2024-01-31T19:48:11.428Z,14.10
2024-01-31T19:50:38.399Z,14.50
2024-01-31T19:53:05.207Z,14.70
2024-01-31T19:55:32.187Z,14.40
2024-01-31T19:57:58.973Z,14.20
2024-01-31T20:00:25.872Z,14.40
2024-01-31T20:02:52.795Z,13.60
2024-01-31T20:05:19.655Z,13.30
2024-01-31T20:07:46.901Z,14.40
2024-01-31T20:10:13.726Z,15.40
2024-01-31T20:12:40.513Z,13.70
2024-01-31T20:15:07.786Z,14.10
2024-01-31T20:17:34.901Z,14.40
2024-01-31T20:20:02.039Z,14.90
2024-01-31T20:22:28.971Z,14.20
2024-01-31T20:24:56.379Z,15.40
2024-01-31T20:27:25.656Z,14.90
2024-01-31T20:29:53.870Z,14.90
2024-01-31T20:32:20.625Z,14.70
2024-01-31T20:34:47.621Z,15.10
2024-01-31T20:37:14.573Z,14.40
2024-01-31T20:39:43.979Z,14.60
2024-01-31T20:42:12.125Z,14.60
2024-01-31T20:44:39.666Z,15.30
2024-01-31T20:47:06.638Z,15.40
2024-01-31T20:49:33.637Z,14.80
2024-01-31T20:52:00.483Z,15.00
2024-01-31T20:54:27.352Z,14.60
2024-01-31T20:56:55.399Z,14.10
2024-01-31T20:59:22.307Z,15.60
2024-01-31T21:01:49.598Z,15.20
2024-01-31T21:04:16.469Z,13.10
2024-01-31T21:06:43.581Z,14.20
2024-01-31T21:09:10.617Z,15.40
2024-01-31T21:11:37.609Z,14.80
2024-01-31T21:14:04.467Z,13.90
2024-01-31T21:16:31.503Z,14.20
2024-01-31T21:18:58.543Z,14.80
2024-01-31T21:21:25.449Z,14.60
2024-01-31T21:23:53.040Z,14.50
2024-01-31T21:26:20.049Z,14.60
2024-01-31T21:28:46.852Z,14.10
2024-01-31T21:31:13.707Z,15.40
2024-01-31T21:33:41.715Z,13.90
2024-01-31T21:36:11.798Z,14.80
2024-01-31T21:38:41.554Z,15.00
2024-01-31T21:41:12.427Z,14.20
2024-01-31T21:43:42.728Z,14.30
2024-01-31T21:46:13.307Z,14.60
2024-01-31T21:48:42.777Z,14.70
2024-01-31T21:51:11.771Z,15.50
2024-01-31T21:53:41.036Z,15.50
2024-01-31T21:56:17.709Z,14.70
2024-01-31T21:58:46.359Z,14.30
2024-01-31T22:01:15.712Z,15.40
2024-01-31T22:03:54.022Z,15.00
2024-01-31T22:06:28.766Z,13.70
2024-01-31T22:08:58.905Z,14.50
2024-01-31T22:11:27.740Z,15.00
2024-01-31T22:13:57.185Z,15.60
2024-01-31T22:16:27.708Z,14.60
2024-01-31T22:18:57.126Z,14.20
2024-01-31T22:21:26.252Z,15.80
2024-01-31T22:23:55.777Z,14.00
2024-01-31T22:26:25.865Z,15.80
2024-01-31T22:28:54.707Z,14.20
2024-01-31T22:31:24.182Z,14.60
2024-01-31T22:42:11.065Z,14.80
2024-01-31T22:44:37.946Z,15.00
2024-01-31T22:47:05.217Z,15.60
2024-01-31T22:49:32.337Z,16.10
2024-01-31T22:51:59.315Z,15.60
2024-01-31T22:54:28.609Z,16.80
2024-01-31T22:56:58.851Z,15.30
2024-01-31T22:59:25.983Z,16.40
2024-01-31T23:01:56.457Z,15.70
2024-01-31T23:04:23.544Z,17.30
2024-01-31T23:06:50.691Z,16.50
2024-01-31T23:09:17.728Z,15.90
2024-01-31T23:11:45.453Z,15.60
2024-01-31T23:14:12.734Z,16.90
2024-01-31T23:16:39.813Z,16.20
2024-01-31T23:19:07.116Z,16.10
2024-01-31T23:21:34.117Z,17.30
2024-01-31T23:24:01.143Z,15.70
2024-01-31T23:26:28.142Z,16.00
2024-01-31T23:28:55.766Z,16.80
2024-01-31T23:31:22.511Z,13.80
2024-01-31T23:33:49.695Z,16.10
2024-01-31T23:36:16.890Z,16.60
2024-01-31T23:38:44.383Z,16.30
2024-01-31T23:41:11.350Z,16.30
2024-01-31T23:43:38.153Z,16.10
2024-01-31T23:46:05.215Z,17.30
2024-01-31T23:48:32.283Z,16.80
2024-01-31T23:51:00.046Z,16.70
2024-01-31T23:53:27.690Z,16.20
2024-01-31T23:55:54.513Z,16.60
2024-01-31T23:58:21.488Z,16.00
